Time;durP1;ratioP1;P1;durP2;ratioP2;P2;SDS_P1;SDS_P2;PMS_P1;PMS_P2;Temp;Humidity;BMP_temperature;BMP_pressure;BME280_temperature;BME280_humidity;BME280_pressure;Samples;Min_cycle;Max_cycle;Signal;HPM_P1;HPM_P2
2022/02/19 00:00:08;;;;;;;0.40;0.40;;;8.30;99.90;;;;;;4437733;32;20065;-64
2022/02/19 00:02:33;;;;;;;0.40;0.40;;;8.20;99.90;;;;;;4438186;32;20126;-64
2022/02/19 00:04:59;;;;;;;3.40;1.00;;;8.20;99.90;;;;;;4436588;32;20513;-64
2022/02/19 00:07:24;;;;;;;4.97;1.02;;;8.30;99.90;;;;;;4437929;32;20160;-64
2022/02/19 00:09:50;;;;;;;0.30;0.30;;;8.20;99.90;;;;;;4440788;32;20065;-64
2022/02/19 00:12:15;;;;;;;0.40;0.40;;;8.20;99.90;;;;;;4440662;32;20068;-64
2022/02/19 00:14:41;;;;;;;0.50;0.50;;;8.30;99.90;;;;;;4442907;32;20490;-64
2022/02/19 00:17:06;;;;;;;21.12;0.90;;;8.20;99.90;;;;;;4441835;32;20127;-64
2022/02/19 00:19:32;;;;;;;0.37;0.37;;;8.20;99.90;;;;;;4441844;32;20066;-64
2022/02/19 00:21:57;;;;;;;0.40;0.40;;;8.20;99.90;;;;;;4442129;32;20068;-64
2022/02/19 00:24:23;;;;;;;0.43;0.43;;;8.10;99.90;;;;;;4441989;32;20127;-64
2022/02/19 00:26:48;;;;;;;0.30;0.30;;;8.10;99.90;;;;;;4442713;32;20093;-64
2022/02/19 00:29:14;;;;;;;0.37;0.37;;;8.10;99.90;;;;;;4441735;32;21884;-64
2022/02/19 00:31:40;;;;;;;0.50;0.50;;;8.10;99.90;;;;;;4441384;32;20077;-64
2022/02/19 00:34:06;;;;;;;0.30;0.30;;;8.10;99.90;;;;;;4442666;32;20065;-63
2022/02/19 00:36:31;;;;;;;0.73;0.73;;;8.00;99.90;;;;;;4440876;32;20089;-63
2022/02/19 00:38:57;;;;;;;10.50;0.70;;;8.00;99.90;;;;;;4440804;32;20080;-63
2022/02/19 00:41:23;;;;;;;0.40;0.40;;;8.00;99.90;;;;;;4442456;32;20493;-63
2022/02/19 00:43:50;;;;;;;0.40;0.40;;;8.00;99.90;;;;;;4440793;32;20073;-63
2022/02/19 00:46:15;;;;;;;0.30;0.30;;;8.00;99.90;;;;;;4441501;32;20483;-63
2022/02/19 00:48:41;;;;;;;1.55;1.20;;;7.90;99.90;;;;;;4441644;32;20077;-63
2022/02/19 00:51:07;;;;;;;0.30;0.30;;;8.00;99.90;;;;;;4442085;32;20069;-63
2022/02/19 00:53:32;;;;;;;2.60;0.68;;;7.90;99.90;;;;;;4439882;32;20399;-64
2022/02/19 00:55:57;;;;;;;1.20;0.68;;;7.90;99.90;;;;;;4441549;32;20134;-64
2022/02/19 00:58:23;;;;;;;41.20;0.93;;;7.90;99.90;;;;;;4441605;32;20073;-64
2022/02/19 01:00:48;;;;;;;0.77;0.60;;;7.90;99.90;;;;;;4443157;32;20097;-64
2022/02/19 01:03:14;;;;;;;1.77;0.75;;;7.90;99.90;;;;;;4440601;32;20422;-64
2022/02/19 01:05:40;;;;;;;0.37;0.37;;;7.90;99.90;;;;;;4439106;32;20061;-64
2022/02/19 01:08:05;;;;;;;0.50;0.50;;;7.90;99.90;;;;;;4441661;32;20073;-64
2022/02/19 01:10:31;;;;;;;0.35;0.35;;;7.90;99.90;;;;;;4442551;32;20081;-64
2022/02/19 01:12:57;;;;;;;0.60;0.60;;;7.90;99.90;;;;;;4440614;32;20164;-64
2022/02/19 01:15:23;;;;;;;14.45;1.85;;;7.90;99.90;;;;;;4441013;32;20089;-64
2022/02/19 01:17:49;;;;;;;0.50;0.50;;;7.90;99.90;;;;;;4439937;32;20085;-64
2022/02/19 01:20:14;;;;;;;20.02;0.50;;;7.90;99.90;;;;;;4438041;32;20089;-64
2022/02/19 01:22:42;;;;;;;0.40;0.40;;;7.90;99.90;;;;;;4439305;32;20080;-64
2022/02/19 01:25:09;;;;;;;1.08;0.70;;;7.80;99.90;;;;;;4440863;32;20198;-64
2022/02/19 01:27:35;;;;;;;1.37;1.08;;;7.80;99.90;;;;;;4438770;32;20413;-64
2022/02/19 01:30:00;;;;;;;0.35;0.35;;;7.90;99.40;;;;;;4440952;32;20725;-64
2022/02/19 01:32:26;;;;;;;0.40;0.40;;;7.90;99.30;;;;;;4441407;32;20069;-63
2022/02/19 01:34:51;;;;;;;0.40;0.40;;;7.90;98.30;;;;;;4441327;32;20085;-64
2022/02/19 01:37:17;;;;;;;0.40;0.40;;;7.90;98.10;;;;;;4440567;32;20120;-64
2022/02/19 01:39:44;;;;;;;0.32;0.32;;;7.90;97.70;;;;;;4439395;32;20101;-64
2022/02/19 01:42:10;;;;;;;0.30;0.30;;;7.90;97.40;;;;;;4442046;32;20088;-64
2022/02/19 01:44:38;;;;;;;0.60;0.60;;;7.90;97.40;;;;;;4441208;32;20078;-64
2022/02/19 01:47:05;;;;;;;0.60;0.60;;;7.90;97.60;;;;;;4441038;32;20082;-64
2022/02/19 01:49:30;;;;;;;0.40;0.40;;;7.90;97.20;;;;;;4439443;32;20080;-64
2022/02/19 01:51:56;;;;;;;3.83;1.08;;;7.90;97.40;;;;;;4440290;32;20124;-64
2022/02/19 01:54:21;;;;;;;1.92;1.40;;;7.90;97.30;;;;;;4439851;32;20069;-64
2022/02/19 01:56:47;;;;;;;3.50;2.05;;;7.90;97.40;;;;;;4441991;32;20069;-65
2022/02/19 01:59:12;;;;;;;5.20;2.90;;;7.90;97.60;;;;;;4439620;32;20057;-65
2022/02/19 02:01:38;;;;;;;0.60;0.60;;;7.90;96.90;;;;;;4442365;32;20057;-63
2022/02/19 02:04:04;;;;;;;0.55;0.55;;;7.80;96.50;;;;;;4437827;32;20143;-63
2022/02/19 02:06:30;;;;;;;7.78;1.30;;;7.90;96.00;;;;;;4438867;32;20098;-65
2022/02/19 02:08:57;;;;;;;3.53;0.82;;;7.90;96.10;;;;;;4440176;32;20072;-65
2022/02/19 02:11:23;;;;;;;0.40;0.40;;;7.90;96.00;;;;;;4440389;32;20256;-65
2022/02/19 02:13:49;;;;;;;1.10;0.85;;;7.90;96.20;;;;;;4442470;32;20068;-65
2022/02/19 02:16:14;;;;;;;0.40;0.40;;;7.90;95.40;;;;;;4441251;32;20128;-65
2022/02/19 02:18:43;;;;;;;4.43;1.23;;;7.90;95.60;;;;;;4440084;32;20210;-65
2022/02/19 02:21:09;;;;;;;0.30;0.30;;;7.90;95.80;;;;;;4439920;32;20089;-65
2022/02/19 02:23:34;;;;;;;0.30;0.30;;;7.90;95.40;;;;;;4439405;32;20081;-65
2022/02/19 02:26:02;;;;;;;0.30;0.30;;;7.90;95.80;;;;;;4440222;32;20403;-65
2022/02/19 02:28:28;;;;;;;0.32;0.32;;;7.80;95.10;;;;;;4439054;32;20499;-65
2022/02/19 02:30:53;;;;;;;0.65;0.60;;;7.80;95.50;;;;;;4438480;32;20527;-65
2022/02/19 02:33:21;;;;;;;0.60;0.60;;;7.80;95.40;;;;;;4440735;32;20068;-65
2022/02/19 02:35:49;;;;;;;1.83;0.47;;;7.80;95.40;;;;;;4437814;32;20085;-65
2022/02/19 02:38:15;;;;;;;0.50;0.50;;;7.70;95.50;;;;;;4439964;32;20438;-65
2022/02/19 02:40:41;;;;;;;0.88;0.88;;;7.70;95.00;;;;;;4442002;32;20069;-65
2022/02/19 02:43:06;;;;;;;0.32;0.32;;;7.80;94.20;;;;;;4440462;32;20492;-65
2022/02/19 02:45:32;;;;;;;0.40;0.40;;;7.80;94.60;;;;;;4437675;32;20073;-65
2022/02/19 02:47:58;;;;;;;0.37;0.37;;;7.80;94.40;;;;;;4439892;32;20127;-65
2022/02/19 02:50:23;;;;;;;1.17;1.10;;;7.80;94.30;;;;;;4439144;32;20085;-65
2022/02/19 02:52:49;;;;;;;17.65;0.75;;;7.80;94.10;;;;;;4439751;32;20488;-65
2022/02/19 02:55:14;;;;;;;0.40;0.40;;;7.80;93.90;;;;;;4440409;32;20097;-65
2022/02/19 02:57:41;;;;;;;1.85;0.60;;;7.80;93.80;;;;;;4440082;32;20072;-65
2022/02/19 03:00:10;;;;;;;4.68;1.05;;;7.70;93.70;;;;;;4439444;32;20103;-64
2022/02/19 03:02:37;;;;;;;1.48;0.98;;;7.70;94.60;;;;;;4439796;32;20078;-65
2022/02/19 03:05:04;;;;;;;0.30;0.30;;;7.70;93.50;;;;;;4440612;32;20065;-65
2022/02/19 03:07:30;;;;;;;0.73;0.65;;;7.70;93.60;;;;;;4439501;32;20561;-65
2022/02/19 03:09:56;;;;;;;0.68;0.62;;;7.80;92.80;;;;;;4439854;32;20062;-65
2022/02/19 03:12:22;;;;;;;0.40;0.40;;;7.80;92.90;;;;;;4440502;32;20068;-64
2022/02/19 03:14:48;;;;;;;0.80;0.80;;;7.70;92.90;;;;;;4439938;32;20085;-65
2022/02/19 03:17:13;;;;;;;0.98;0.98;;;7.70;93.40;;;;;;4439629;32;20854;-65
2022/02/19 03:19:39;;;;;;;0.75;0.75;;;7.70;92.90;;;;;;4436713;32;20096;-65
2022/02/19 03:22:04;;;;;;;0.77;0.77;;;7.60;93.10;;;;;;4438886;32;20069;-65
2022/02/19 03:24:30;;;;;;;0.40;0.40;;;7.60;93.50;;;;;;4441788;32;20076;-65
2022/02/19 03:26:58;;;;;;;0.30;0.30;;;7.60;93.50;;;;;;4439027;32;20252;-65
2022/02/19 03:29:24;;;;;;;0.57;0.57;;;7.60;93.40;;;;;;4439356;32;20077;-65
2022/02/19 03:31:50;;;;;;;16.17;1.30;;;7.60;94.00;;;;;;4438749;32;20064;-65
2022/02/19 03:34:15;;;;;;;0.40;0.40;;;7.50;94.10;;;;;;4441276;32;20081;-65
2022/02/19 03:36:41;;;;;;;0.40;0.40;;;7.50;93.80;;;;;;4439693;32;20092;-65
2022/02/19 03:39:07;;;;;;;5.28;0.75;;;7.50;94.10;;;;;;4438942;32;20085;-65
2022/02/19 03:41:34;;;;;;;0.30;0.30;;;7.50;94.30;;;;;;4440414;32;20127;-62
2022/02/19 03:44:00;;;;;;;0.40;0.40;;;7.50;94.50;;;;;;4439430;32;20101;-64
2022/02/19 03:46:26;;;;;;;24.67;2.17;;;7.50;94.10;;;;;;4439115;32;20080;-63
2022/02/19 03:48:51;;;;;;;0.40;0.40;;;7.50;94.00;;;;;;4438416;32;20057;-64
2022/02/19 03:51:17;;;;;;;0.40;0.40;;;7.50;94.40;;;;;;4438157;32;20073;-64
2022/02/19 03:53:42;;;;;;;0.55;0.55;;;7.50;94.40;;;;;;4436984;32;20069;-64
2022/02/19 03:56:08;;;;;;;0.50;0.50;;;7.50;94.60;;;;;;4424906;32;20127;-65
2022/02/19 03:58:34;;;;;;;0.62;0.62;;;7.50;94.60;;;;;;4438529;32;20109;-64
2022/02/19 04:01:00;;;;;;;1.77;0.77;;;7.50;94.90;;;;;;4438920;32;20093;-64
2022/02/19 04:03:26;;;;;;;0.40;0.40;;;7.50;95.00;;;;;;4439862;32;20120;-63
2022/02/19 04:05:51;;;;;;;0.40;0.40;;;7.40;95.50;;;;;;4439459;32;21341;-63
2022/02/19 04:08:18;;;;;;;0.40;0.40;;;7.40;96.00;;;;;;4438435;32;20158;-63
2022/02/19 04:10:43;;;;;;;1.77;1.25;;;7.40;96.80;;;;;;4439643;32;20578;-63
2022/02/19 04:13:09;;;;;;;1.10;0.90;;;7.40;97.70;;;;;;4439128;32;20073;-64
2022/02/19 04:15:34;;;;;;;0.65;0.65;;;7.30;98.50;;;;;;4440379;32;20089;-64
2022/02/19 04:18:00;;;;;;;0.43;0.43;;;7.30;99.70;;;;;;4436386;32;20392;-63
2022/02/19 04:20:26;;;;;;;0.40;0.40;;;7.20;99.90;;;;;;4437863;32;20529;-63
2022/02/19 04:22:52;;;;;;;0.30;0.30;;;7.10;99.90;;;;;;4438008;32;20090;-63
2022/02/19 04:25:18;;;;;;;1.00;0.93;;;7.10;99.90;;;;;;4439910;32;20093;-64
2022/02/19 04:27:43;;;;;;;0.55;0.55;;;7.00;99.90;;;;;;4436884;32;20092;-63
2022/02/19 04:30:10;;;;;;;3.20;1.23;;;7.00;99.90;;;;;;4439475;32;20108;-65
2022/02/19 04:32:35;;;;;;;0.60;0.60;;;7.00;99.90;;;;;;4439557;32;20410;-65
2022/02/19 04:35:01;;;;;;;0.40;0.40;;;6.90;99.90;;;;;;4438685;32;20124;-65
2022/02/19 04:37:27;;;;;;;0.62;0.62;;;6.90;99.90;;;;;;4438586;32;20080;-65
2022/02/19 04:39:52;;;;;;;0.75;0.75;;;6.90;99.90;;;;;;4437958;32;20088;-65
2022/02/19 04:42:18;;;;;;;0.80;0.80;;;6.90;99.90;;;;;;4436817;32;20061;-65
2022/02/19 04:44:43;;;;;;;0.40;0.40;;;6.90;99.90;;;;;;4440070;32;20607;-65
2022/02/19 04:47:09;;;;;;;0.40;0.40;;;6.90;99.90;;;;;;4438496;32;21226;-64
2022/02/19 04:49:34;;;;;;;0.40;0.40;;;6.90;99.90;;;;;;4436512;32;20285;-65
2022/02/19 04:52:00;;;;;;;11.27;0.77;;;6.80;99.90;;;;;;4438926;32;20089;-64
2022/02/19 04:54:25;;;;;;;0.50;0.50;;;6.80;99.90;;;;;;4438364;32;20465;-64
2022/02/19 04:56:51;;;;;;;0.50;0.50;;;6.80;99.90;;;;;;4441865;32;20074;-65
2022/02/19 04:59:16;;;;;;;0.70;0.70;;;6.80;99.90;;;;;;4442977;32;20398;-65
2022/02/19 05:01:41;;;;;;;0.75;0.75;;;6.80;99.90;;;;;;4441141;32;20140;-64
2022/02/19 05:04:07;;;;;;;0.35;0.35;;;6.80;99.90;;;;;;4440865;32;20124;-64
2022/02/19 05:06:33;;;;;;;0.52;0.52;;;6.80;99.90;;;;;;4441864;32;20073;-64
2022/02/19 05:08:59;;;;;;;2.12;0.85;;;6.70;99.90;;;;;;4440654;32;20394;-64
2022/02/19 05:11:24;;;;;;;0.60;0.60;;;6.70;99.90;;;;;;4441535;32;20516;-64
2022/02/19 05:13:50;;;;;;;1.52;0.80;;;6.70;99.90;;;;;;4439898;32;20069;-64
2022/02/19 05:16:15;;;;;;;0.50;0.50;;;6.70;99.90;;;;;;4441957;32;20073;-64
2022/02/19 05:18:41;;;;;;;0.32;0.32;;;6.70;99.90;;;;;;4441011;32;20073;-64
2022/02/19 05:21:06;;;;;;;0.45;0.45;;;6.70;99.90;;;;;;4442299;32;20130;-64
2022/02/19 05:23:32;;;;;;;0.57;0.55;;;6.70;99.90;;;;;;4441752;32;20085;-64
2022/02/19 05:25:59;;;;;;;0.88;0.82;;;6.70;99.90;;;;;;4441868;32;20085;-64
2022/02/19 05:28:25;;;;;;;2.37;0.95;;;6.60;99.90;;;;;;4439242;32;20220;-64
2022/02/19 05:30:50;;;;;;;0.40;0.40;;;6.60;99.90;;;;;;4443019;32;20061;-64
2022/02/19 05:33:16;;;;;;;39.85;0.93;;;6.60;99.90;;;;;;4441536;32;20120;-64
2022/02/19 05:35:41;;;;;;;2.03;1.48;;;6.60;99.90;;;;;;4440852;32;20516;-65
2022/02/19 05:38:07;;;;;;;1.50;1.33;;;6.60;99.90;;;;;;4441117;32;20427;-65
2022/02/19 05:40:32;;;;;;;0.40;0.40;;;6.60;99.90;;;;;;4442498;32;20086;-65
2022/02/19 05:42:58;;;;;;;0.40;0.40;;;6.60;99.90;;;;;;4441659;32;20108;-65
2022/02/19 05:45:23;;;;;;;0.60;0.60;;;6.60;99.90;;;;;;4442602;32;20093;-65
2022/02/19 05:47:49;;;;;;;0.30;0.30;;;6.50;99.90;;;;;;4442127;32;20131;-65
2022/02/19 05:50:14;;;;;;;10.43;0.93;;;6.50;99.90;;;;;;4439505;32;20767;-65
2022/02/19 05:52:40;;;;;;;0.60;0.60;;;6.50;99.90;;;;;;4438288;32;20072;-65
2022/02/19 05:55:06;;;;;;;0.30;0.30;;;6.40;99.90;;;;;;4439237;32;20061;-65
2022/02/19 05:57:32;;;;;;;7.65;0.73;;;6.40;99.90;;;;;;4439229;32;20069;-65
2022/02/19 05:59:57;;;;;;;0.30;0.30;;;6.40;99.90;;;;;;4440639;32;20560;-65
2022/02/19 06:02:23;;;;;;;0.70;0.70;;;6.30;99.90;;;;;;4441068;32;20092;-65
2022/02/19 06:04:48;;;;;;;0.60;0.60;;;6.30;99.90;;;;;;4440347;32;20517;-65
2022/02/19 06:07:14;;;;;;;0.37;0.37;;;6.20;99.90;;;;;;4439349;32;20441;-65
2022/02/19 06:09:39;;;;;;;0.40;0.40;;;6.20;99.90;;;;;;4440951;32;20073;-65
2022/02/19 06:12:05;;;;;;;0.37;0.37;;;6.20;99.90;;;;;;4440291;32;20065;-65
2022/02/19 06:14:31;;;;;;;1.20;1.10;;;6.20;99.90;;;;;;4440614;32;20194;-65
2022/02/19 06:16:56;;;;;;;0.30;0.30;;;6.10;99.90;;;;;;4441572;32;20125;-65
2022/02/19 06:19:23;;;;;;;0.57;0.57;;;6.10;99.90;;;;;;4440161;32;20356;-65
2022/02/19 06:21:49;;;;;;;0.30;0.30;;;6.20;99.90;;;;;;4440975;32;20092;-64
2022/02/19 06:24:14;;;;;;;0.32;0.32;;;6.20;99.90;;;;;;4439977;32;20097;-65
2022/02/19 06:26:40;;;;;;;0.30;0.30;;;6.20;99.90;;;;;;4441308;32;20131;-64
2022/02/19 06:29:05;;;;;;;0.40;0.40;;;6.20;99.90;;;;;;4439834;32;20093;-64
2022/02/19 06:31:31;;;;;;;0.82;0.50;;;6.20;99.90;;;;;;4441474;32;20089;-64
2022/02/19 06:33:56;;;;;;;0.50;0.50;;;6.20;99.90;;;;;;4440531;32;20096;-64
2022/02/19 06:36:22;;;;;;;0.40;0.40;;;6.30;99.90;;;;;;4441690;32;20064;-64
2022/02/19 06:38:48;;;;;;;1.27;0.65;;;6.30;99.90;;;;;;4439699;32;20436;-64
2022/02/19 06:41:14;;;;;;;0.40;0.40;;;6.30;99.90;;;;;;4440930;32;20320;-64
2022/02/19 06:43:39;;;;;;;0.37;0.37;;;6.20;99.90;;;;;;4441061;32;20077;-64
2022/02/19 06:46:05;;;;;;;0.65;0.62;;;6.30;99.90;;;;;;4441079;32;20092;-64
2022/02/19 06:48:31;;;;;;;0.95;0.95;;;6.30;99.90;;;;;;4440540;32;20081;-64
2022/02/19 06:50:58;;;;;;;0.30;0.30;;;6.30;99.90;;;;;;4438775;32;20060;-65
2022/02/19 06:53:24;;;;;;;0.40;0.40;;;6.20;99.90;;;;;;4436373;32;20129;-64
2022/02/19 06:55:49;;;;;;;0.40;0.40;;;6.30;99.90;;;;;;4438528;32;20219;-64
2022/02/19 06:58:15;;;;;;;0.45;0.45;;;6.30;99.90;;;;;;4441146;32;20524;-64
2022/02/19 07:00:40;;;;;;;1.10;0.85;;;6.30;99.90;;;;;;4441549;32;20065;-64
2022/02/19 07:03:06;;;;;;;0.40;0.40;;;6.20;99.90;;;;;;4441052;32;20077;-64
2022/02/19 07:05:32;;;;;;;0.30;0.30;;;6.20;99.90;;;;;;4441157;32;21264;-65
2022/02/19 07:07:57;;;;;;;0.40;0.40;;;6.20;99.90;;;;;;4440000;32;20066;-65
2022/02/19 07:10:23;;;;;;;0.35;0.35;;;6.10;99.90;;;;;;4440754;32;20105;-65
2022/02/19 07:12:48;;;;;;;0.47;0.47;;;6.10;99.90;;;;;;4440840;32;20130;-64
2022/02/19 07:15:20;;;;;;;0.68;0.68;;;6.00;99.90;;;;;;4439550;32;20072;-64
2022/02/19 07:17:49;;;;;;;0.40;0.40;;;6.00;99.90;;;;;;4439151;32;20081;-64
2022/02/19 07:20:14;;;;;;;0.40;0.40;;;5.90;99.90;;;;;;4425026;32;20088;-64
2022/02/19 07:22:40;;;;;;;0.32;0.32;;;5.90;99.90;;;;;;4440059;32;20064;-64
2022/02/19 07:25:05;;;;;;;0.40;0.40;;;5.90;99.90;;;;;;4439429;32;20521;-64
2022/02/19 07:27:39;;;;;;;0.37;0.37;;;5.90;99.90;;;;;;4441070;32;20454;-64
2022/02/19 07:30:07;;;;;;;1.77;0.60;;;5.90;99.90;;;;;;4439241;32;20507;-64
2022/02/19 07:32:34;;;;;;;0.40;0.40;;;5.90;99.90;;;;;;4440577;32;20073;-64
2022/02/19 07:34:59;;;;;;;1.70;0.98;;;5.80;99.90;;;;;;4437426;32;84726;-64
2022/02/19 07:37:25;;;;;;;0.40;0.40;;;5.80;99.90;;;;;;4439967;32;20088;-64
2022/02/19 07:39:51;;;;;;;0.40;0.40;;;5.90;99.90;;;;;;4439740;32;20102;-65
2022/02/19 07:42:16;;;;;;;0.40;0.40;;;5.80;99.90;;;;;;4440160;32;20173;-65
2022/02/19 07:44:42;;;;;;;0.40;0.40;;;5.90;99.90;;;;;;4440470;32;20160;-65
2022/02/19 07:47:07;;;;;;;0.35;0.35;;;5.80;99.90;;;;;;4440210;32;20073;-65
2022/02/19 07:58:49;;;;;;;0.40;0.40;;;5.90;99.90;;;;;;4436859;32;20450;-65
2022/02/19 08:00:35;;;;;;;0.90;0.77;;;5.90;99.90;;;;;;4438218;32;20251;-65
2022/02/19 08:03:00;;;;;;;0.40;0.40;;;6.00;99.90;;;;;;4440779;32;20162;-65
2022/02/19 08:05:26;;;;;;;0.37;0.37;;;6.10;99.90;;;;;;4439321;32;20050;-65
2022/02/19 08:07:51;;;;;;;0.32;0.32;;;6.00;99.90;;;;;;4440680;32;20131;-65
2022/02/19 08:10:17;;;;;;;4.40;0.73;;;6.10;99.90;;;;;;4439747;32;20057;-65
2022/02/19 08:12:42;;;;;;;0.32;0.32;;;6.10;99.90;;;;;;4439570;32;20102;-65
2022/02/19 08:15:08;;;;;;;0.40;0.40;;;6.10;99.90;;;;;;4439385;32;20077;-65
2022/02/19 08:17:33;;;;;;;1.65;1.30;;;6.10;99.90;;;;;;4439027;32;20416;-65
2022/02/19 08:19:59;;;;;;;0.47;0.47;;;6.10;99.90;;;;;;4435859;32;20226;-65
2022/02/19 08:22:24;;;;;;;4.75;2.70;;;6.20;99.90;;;;;;4436892;32;20098;-65
2022/02/19 08:24:50;;;;;;;14.70;1.15;;;6.20;99.90;;;;;;4440995;32;20057;-65
2022/02/19 08:27:15;;;;;;;0.40;0.40;;;6.20;99.90;;;;;;4439290;32;20278;-65
2022/02/19 08:29:41;;;;;;;0.75;0.75;;;6.10;99.90;;;;;;4441408;32;20142;-65
2022/02/19 08:32:06;;;;;;;0.35;0.35;;;6.10;99.90;;;;;;4442193;32;20567;-65
2022/02/19 08:34:32;;;;;;;0.57;0.57;;;6.10;99.90;;;;;;4442672;32;20081;-65
2022/02/19 08:36:58;;;;;;;2.17;0.90;;;6.00;99.90;;;;;;4439978;32;20091;-65
2022/02/19 08:39:24;;;;;;;0.43;0.43;;;6.00;99.90;;;;;;4442841;32;20299;-64
2022/02/19 08:41:49;;;;;;;0.60;0.60;;;6.00;99.90;;;;;;4440725;32;20105;-64
2022/02/19 08:44:15;;;;;;;0.30;0.30;;;6.10;99.90;;;;;;4443634;32;20120;-64
2022/02/19 08:46:40;;;;;;;0.30;0.30;;;6.10;99.90;;;;;;4440399;32;20074;-65
2022/02/19 08:49:06;;;;;;;0.77;0.50;;;6.10;99.90;;;;;;4441552;32;20052;-65
2022/02/19 08:51:31;;;;;;;1.90;0.82;;;6.20;99.90;;;;;;4442613;32;20073;-64
2022/02/19 08:53:57;;;;;;;0.50;0.50;;;6.20;99.90;;;;;;4441132;32;20415;-64
2022/02/19 08:56:22;;;;;;;0.30;0.30;;;6.20;99.90;;;;;;4441343;32;20085;-65
2022/02/19 08:58:48;;;;;;;0.75;0.50;;;6.20;99.90;;;;;;4442684;32;20049;-64
2022/02/19 09:01:14;;;;;;;0.30;0.30;;;6.20;99.90;;;;;;4442430;32;20198;-64
2022/02/19 09:03:39;;;;;;;1.05;0.98;;;6.10;99.90;;;;;;4442340;32;20042;-64
2022/02/19 09:06:05;;;;;;;0.82;0.82;;;6.00;99.90;;;;;;4441998;32;20073;-65
2022/02/19 09:08:30;;;;;;;0.40;0.40;;;6.10;99.90;;;;;;4442445;32;20527;-64
2022/02/19 09:10:56;;;;;;;0.40;0.40;;;6.10;99.90;;;;;;4441969;32;20123;-65
2022/02/19 09:13:21;;;;;;;0.30;0.30;;;6.00;99.90;;;;;;4441377;32;20432;-65
2022/02/19 09:15:49;;;;;;;0.30;0.30;;;6.00;99.90;;;;;;4441553;32;20077;-65
2022/02/19 09:18:14;;;;;;;2.05;0.73;;;6.00;99.90;;;;;;4440764;32;20529;-65
2022/02/19 09:20:40;;;;;;;0.30;0.30;;;5.90;99.90;;;;;;4438875;32;20057;-65
2022/02/19 09:23:06;;;;;;;0.40;0.40;;;5.80;99.90;;;;;;4440699;32;20563;-65
2022/02/19 09:25:31;;;;;;;0.30;0.30;;;5.80;99.90;;;;;;4442375;32;20130;-65
2022/02/19 09:27:57;;;;;;;3.65;1.10;;;5.80;99.90;;;;;;4441577;32;20080;-65
2022/02/19 09:30:22;;;;;;;0.40;0.40;;;5.60;99.90;;;;;;4440876;32;20073;-66
2022/02/19 09:32:49;;;;;;;0.40;0.40;;;5.70;99.90;;;;;;4441462;32;20131;-65
2022/02/19 09:35:16;;;;;;;0.40;0.40;;;5.80;99.90;;;;;;4440272;32;20085;-65
2022/02/19 09:37:42;;;;;;;4.28;0.80;;;5.80;99.90;;;;;;4441229;32;20115;-65
2022/02/19 09:40:09;;;;;;;7.97;1.05;;;5.60;99.90;;;;;;4440642;32;20069;-65
2022/02/19 09:42:36;;;;;;;0.50;0.50;;;5.60;99.90;;;;;;4440826;32;20085;-65
2022/02/19 09:45:03;;;;;;;0.45;0.45;;;5.70;99.90;;;;;;4442045;32;20415;-65
2022/02/19 09:47:30;;;;;;;0.40;0.40;;;5.70;99.90;;;;;;4441891;32;20085;-65
2022/02/19 09:49:57;;;;;;;0.40;0.40;;;5.80;99.90;;;;;;4439068;32;20073;-65
2022/02/19 09:52:23;;;;;;;0.55;0.55;;;5.80;99.90;;;;;;4439408;32;20056;-65
2022/02/19 09:54:50;;;;;;;3.78;1.20;;;5.90;99.90;;;;;;4441090;32;20414;-65
2022/02/19 09:57:16;;;;;;;0.40;0.40;;;5.90;99.90;;;;;;4440686;32;20113;-65
2022/02/19 09:59:41;;;;;;;0.60;0.60;;;5.90;99.90;;;;;;4440340;32;20077;-65
2022/02/19 10:02:07;;;;;;;1.48;1.25;;;6.00;99.90;;;;;;4440450;32;20398;-65
2022/02/19 10:04:33;;;;;;;0.35;0.35;;;6.10;99.90;;;;;;4440360;32;20479;-65
2022/02/19 10:07:12;;;;;;;1.85;0.88;;;6.10;99.90;;;;;;4440205;32;20511;-65
2022/02/19 10:09:41;;;;;;;3.83;0.73;;;6.10;99.90;;;;;;4439721;32;20544;-65
2022/02/19 10:12:09;;;;;;;0.40;0.40;;;6.10;99.90;;;;;;4439817;32;20169;-65
2022/02/19 10:14:36;;;;;;;0.73;0.73;;;6.10;99.90;;;;;;4440689;32;20104;-65
2022/02/19 10:17:07;;;;;;;0.40;0.40;;;6.20;99.90;;;;;;4439749;32;20086;-65
2022/02/19 10:19:47;;;;;;;0.95;0.60;;;6.20;99.90;;;;;;4438205;32;20131;-65
2022/02/19 10:22:13;;;;;;;2.30;0.60;;;6.20;99.90;;;;;;4440983;32;20065;-65
2022/02/19 10:24:38;;;;;;;0.40;0.40;;;6.20;99.90;;;;;;4440700;32;20528;-65
2022/02/19 10:27:04;;;;;;;0.40;0.40;;;6.20;99.90;;;;;;4440532;32;20128;-65
2022/02/19 10:29:32;;;;;;;0.93;0.93;;;6.20;99.90;;;;;;4439981;32;20147;-65
2022/02/19 10:31:58;;;;;;;0.40;0.40;;;6.20;99.90;;;;;;4440188;32;20097;-65
2022/02/19 10:34:24;;;;;;;0.50;0.50;;;6.20;99.90;;;;;;4441166;32;20070;-65
2022/02/19 10:36:54;;;;;;;0.47;0.47;;;6.30;99.90;;;;;;4441168;32;20061;-65
2022/02/19 10:39:29;;;;;;;0.40;0.40;;;6.30;99.90;;;;;;4440336;32;20240;-65
2022/02/19 10:41:57;;;;;;;0.40;0.40;;;6.30;99.90;;;;;;4440176;32;20513;-65
2022/02/19 10:44:27;;;;;;;0.40;0.40;;;6.20;99.90;;;;;;4441080;32;20065;-65
2022/02/19 10:46:55;;;;;;;0.47;0.47;;;6.30;99.90;;;;;;4441971;32;20061;-65
2022/02/19 10:49:21;;;;;;;0.40;0.40;;;6.20;99.90;;;;;;4440560;32;20084;-65
2022/02/19 10:51:47;;;;;;;0.80;0.80;;;6.20;99.90;;;;;;4440290;32;20065;-65
2022/02/19 10:54:19;;;;;;;0.40;0.40;;;6.20;99.90;;;;;;4440891;32;20085;-65
2022/02/19 10:56:44;;;;;;;0.30;0.30;;;6.20;99.90;;;;;;4438560;32;20068;-65
2022/02/19 10:59:13;;;;;;;0.77;0.35;;;6.20;99.90;;;;;;4440707;32;20111;-65
2022/02/19 11:01:49;;;;;;;0.50;0.50;;;6.20;99.90;;;;;;4438135;32;20124;-65
2022/02/19 11:04:16;;;;;;;0.62;0.62;;;6.20;99.90;;;;;;4434073;32;20065;-65
2022/02/19 11:06:43;;;;;;;3.85;1.27;;;6.20;99.90;;;;;;4439820;32;20117;-65
2022/02/19 11:09:09;;;;;;;0.40;0.40;;;6.10;99.90;;;;;;4439007;32;20080;-65
2022/02/19 11:11:37;;;;;;;0.40;0.40;;;6.00;99.90;;;;;;4440129;32;20184;-65
2022/02/19 11:14:04;;;;;;;0.60;0.60;;;6.00;99.90;;;;;;4438252;32;20118;-65
2022/02/19 11:16:31;;;;;;;0.68;0.60;;;6.00;99.90;;;;;;4440607;32;20513;-65
2022/02/19 11:18:57;;;;;;;0.80;0.80;;;6.10;99.90;;;;;;4437864;32;20084;-65
2022/02/19 11:21:24;;;;;;;8.05;1.50;;;6.10;99.90;;;;;;4439947;32;20077;-65
2022/02/19 11:23:52;;;;;;;0.40;0.40;;;6.20;99.90;;;;;;4438580;32;20077;-65
2022/02/19 11:26:20;;;;;;;0.95;0.60;;;6.30;99.90;;;;;;4439702;32;20061;-65
2022/02/19 11:28:46;;;;;;;0.30;0.30;;;6.50;99.90;;;;;;4439535;32;20393;-65
2022/02/19 11:31:14;;;;;;;0.30;0.30;;;6.60;99.90;;;;;;4440304;32;20065;-65
2022/02/19 11:33:43;;;;;;;7.53;1.20;;;6.60;99.90;;;;;;4440442;32;20154;-65
2022/02/19 11:36:09;;;;;;;0.40;0.40;;;6.90;99.90;;;;;;4440254;32;20076;-65
2022/02/19 11:38:46;;;;;;;0.73;0.73;;;7.00;99.90;;;;;;4439504;32;20578;-65
2022/02/19 11:41:15;;;;;;;0.50;0.50;;;7.00;99.90;;;;;;4440014;32;20086;-65
2022/02/19 11:43:43;;;;;;;0.30;0.30;;;7.00;99.90;;;;;;4439745;32;20132;-65
2022/02/19 11:46:15;;;;;;;0.40;0.40;;;7.00;99.90;;;;;;4440150;32;20077;-65
2022/02/19 11:48:44;;;;;;;0.52;0.52;;;7.10;99.90;;;;;;4437618;32;20064;-65
2022/02/19 11:51:27;;;;;;;0.40;0.40;;;7.10;99.90;;;;;;4440416;32;20069;-66
2022/02/19 11:54:13;;;;;;;0.32;0.32;;;7.20;99.90;;;;;;4437750;32;20195;-65
2022/02/19 11:56:41;;;;;;;0.37;0.37;;;7.30;99.90;;;;;;4438390;32;20060;-65
2022/02/19 11:59:09;;;;;;;0.60;0.60;;;7.40;99.90;;;;;;4438356;32;20073;-65
2022/02/19 12:01:36;;;;;;;0.60;0.60;;;7.50;99.90;;;;;;4438124;32;20152;-65
2022/02/19 12:04:19;;;;;;;0.40;0.40;;;7.50;99.90;;;;;;4438618;32;20101;-65
2022/02/19 12:06:46;;;;;;;2.40;0.50;;;7.50;99.90;;;;;;4443348;32;20135;-65
2022/02/19 12:09:16;;;;;;;0.30;0.30;;;7.50;99.90;;;;;;4437915;32;20105;-65
2022/02/19 12:12:10;;;;;;;0.40;0.40;;;7.40;99.90;;;;;;4441568;32;20061;-65
2022/02/19 12:14:47;;;;;;;0.50;0.50;;;7.40;99.90;;;;;;4441224;32;20088;-65
2022/02/19 12:17:16;;;;;;;0.30;0.30;;;7.30;99.90;;;;;;4442871;32;20513;-65
2022/02/19 12:20:03;;;;;;;1.95;0.50;;;7.40;99.90;;;;;;4442661;32;20061;-65
2022/02/19 12:22:36;;;;;;;5.05;0.62;;;7.30;99.90;;;;;;4440595;32;20057;-65
2022/02/19 12:25:06;;;;;;;1.48;0.95;;;7.30;99.90;;;;;;4441235;32;20119;-65
2022/02/19 12:27:31;;;;;;;0.40;0.40;;;7.30;99.90;;;;;;4442044;32;20089;-65
2022/02/19 12:30:18;;;;;;;2.12;1.25;;;7.40;99.90;;;;;;4442908;32;20057;-65
2022/02/19 12:32:45;;;;;;;4.10;1.00;;;7.40;99.90;;;;;;4441690;32;20614;-65
2022/02/19 12:35:11;;;;;;;0.50;0.50;;;7.40;99.90;;;;;;4439938;32;20163;-65
2022/02/19 12:37:37;;;;;;;1.08;0.50;;;7.50;99.90;;;;;;4441382;32;20500;-65
2022/02/19 12:40:03;;;;;;;0.32;0.32;;;7.50;99.90;;;;;;4441611;32;20122;-65
2022/02/19 12:42:30;;;;;;;0.20;0.20;;;7.60;99.90;;;;;;4440719;32;20160;-65
2022/02/19 12:45:06;;;;;;;0.52;0.52;;;7.70;99.90;;;;;;4441029;32;20113;-65
2022/02/19 12:47:33;;;;;;;0.88;0.60;;;7.70;99.90;;;;;;4441919;32;20064;-65
2022/02/19 12:49:59;;;;;;;0.30;0.30;;;7.60;99.90;;;;;;4441538;32;20595;-65
2022/02/19 12:52:24;;;;;;;0.30;0.30;;;7.60;99.90;;;;;;4438997;32;20073;-65
2022/02/19 12:54:51;;;;;;;0.50;0.50;;;7.80;99.90;;;;;;4438386;32;20057;-65
2022/02/19 12:57:20;;;;;;;10.90;0.95;;;7.80;99.90;;;;;;4442285;32;20407;-65
2022/02/19 12:59:48;;;;;;;0.30;0.30;;;7.90;99.90;;;;;;4441959;32;20122;-65
2022/02/19 13:02:19;;;;;;;0.55;0.55;;;8.00;99.90;;;;;;4440766;32;20077;-65